createdAt,value
2019-05-02T00:01:55.983Z,94.30
2019-05-02T00:04:01.656Z,94.50
2019-05-02T00:06:09.227Z,94.50
2019-05-02T00:08:15.022Z,94.40
2019-05-02T00:10:24.872Z,94.10
2019-05-02T00:12:28.601Z,94.30
2019-05-02T00:14:37.023Z,94.20
2019-05-02T00:16:45.096Z,94.30
2019-05-02T00:18:50.351Z,94.30
2019-05-02T00:20:57.133Z,94.40
2019-05-02T00:23:03.301Z,94.30
2019-05-02T00:25:11.093Z,94.40
2019-05-02T00:27:17.208Z,94.10
2019-05-02T00:29:23.732Z,94.30
2019-05-02T00:31:30.308Z,94.20
2019-05-02T00:33:36.082Z,94.00
2019-05-02T00:35:46.204Z,94.00
2019-05-02T00:37:49.964Z,94.20
2019-05-02T00:39:55.657Z,94.30
2019-05-02T00:42:12.026Z,94.40
2019-05-02T00:44:11.059Z,94.30
2019-05-02T00:46:15.665Z,94.50
2019-05-02T00:48:25.724Z,94.30
2019-05-02T00:50:33.019Z,94.60
2019-05-02T00:52:38.614Z,94.20
2019-05-02T00:54:44.184Z,94.20
2019-05-02T00:56:49.835Z,94.00
2019-05-02T00:58:55.368Z,94.40
2019-05-02T01:01:02.585Z,93.90
2019-05-02T01:03:11.248Z,94.10
2019-05-02T01:05:15.563Z,94.30
2019-05-02T01:07:25.578Z,94.20
2019-05-02T01:09:28.808Z,94.40
2019-05-02T01:11:34.353Z,94.00
2019-05-02T01:13:39.919Z,94.10
2019-05-02T01:15:45.963Z,94.10
2019-05-02T01:17:52.680Z,93.80
2019-05-02T01:19:58.265Z,94.10
2019-05-02T01:22:04.044Z,94.10
2019-05-02T01:24:09.692Z,94.10
2019-05-02T01:26:15.438Z,93.70
2019-05-02T01:28:22.604Z,93.80
2019-05-02T01:30:37.117Z,93.60
2019-05-02T01:32:41.759Z,93.50
2019-05-02T01:34:54.216Z,93.40
2019-05-02T01:37:00.532Z,93.10
2019-05-02T01:39:08.767Z,93.20
2019-05-02T01:41:14.433Z,92.90
2019-05-02T01:43:30.756Z,93.20
2019-05-02T01:45:36.436Z,93.20
2019-05-02T01:47:41.976Z,93.10
2019-05-02T01:49:47.492Z,92.80
2019-05-02T01:51:53.084Z,92.50
2019-05-02T01:53:58.627Z,92.90
2019-05-02T01:56:04.489Z,92.80
2019-05-02T01:58:10.104Z,92.80
2019-05-02T02:00:16.077Z,92.90
2019-05-02T02:02:21.750Z,92.80
2019-05-02T02:04:27.337Z,92.80
2019-05-02T02:06:32.980Z,92.50
2019-05-02T02:08:38.969Z,92.20
2019-05-02T02:10:44.696Z,92.20
2019-05-02T02:13:02.939Z,92.20
2019-05-02T02:14:57.567Z,92.30
2019-05-02T02:17:03.156Z,92.20
2019-05-02T02:19:10.392Z,92.00
2019-05-02T02:21:27.678Z,91.80
2019-05-02T02:23:50.981Z,92.30
2019-05-02T02:25:59.172Z,92.40
2019-05-02T02:28:05.184Z,92.60
2019-05-02T02:30:17.669Z,92.70
2019-05-02T02:32:20.200Z,92.90
2019-05-02T02:34:29.048Z,92.80
2019-05-02T02:36:34.702Z,92.70
2019-05-02T02:38:39.830Z,92.50
2019-05-02T02:40:45.389Z,92.80
2019-05-02T02:42:50.980Z,92.40
2019-05-02T02:44:58.155Z,92.90
2019-05-02T02:47:04.708Z,92.60
2019-05-02T02:49:14.075Z,92.80
2019-05-02T02:51:23.653Z,92.70
2019-05-02T02:53:30.486Z,92.90
2019-05-02T02:55:37.132Z,92.40
2019-05-02T02:57:42.721Z,92.30
2019-05-02T02:59:48.311Z,92.60
2019-05-02T03:01:53.830Z,92.30
2019-05-02T03:04:01.878Z,92.50
2019-05-02T03:06:08.125Z,92.30
2019-05-02T03:08:14.147Z,91.90
2019-05-02T03:10:19.798Z,92.70
2019-05-02T03:12:27.094Z,92.40
2019-05-02T03:14:34.317Z,92.40
2019-05-02T03:16:47.086Z,92.30
2019-05-02T03:18:48.097Z,93.10
2019-05-02T03:20:54.832Z,93.10
2019-05-02T03:23:00.564Z,93.40
2019-05-02T03:25:06.723Z,93.30
2019-05-02T03:27:12.382Z,93.90
2019-05-02T03:29:18.053Z,93.90
2019-05-02T03:31:29.784Z,93.20
2019-05-02T03:33:30.961Z,92.80
2019-05-02T03:35:43.305Z,92.70
2019-05-02T03:37:51.310Z,92.80
2019-05-02T03:39:57.062Z,93.10
2019-05-02T03:42:03.101Z,93.60
2019-05-02T03:44:11.542Z,94.00
2019-05-02T03:46:20.524Z,93.70
2019-05-02T03:48:25.723Z,94.00
2019-05-02T03:50:34.997Z,94.30
2019-05-02T03:52:43.982Z,94.00
2019-05-02T03:54:50.281Z,93.90
2019-05-02T03:56:53.441Z,93.70
2019-05-02T03:58:59.326Z,93.70
2019-05-02T04:01:04.967Z,93.90
2019-05-02T04:03:10.960Z,93.70
2019-05-02T04:05:16.856Z,93.90
2019-05-02T04:07:22.409Z,93.90
2019-05-02T04:09:32.091Z,94.10
2019-05-02T04:11:40.737Z,94.50
2019-05-02T04:13:45.492Z,94.60
2019-05-02T04:15:51.294Z,94.80
2019-05-02T04:17:57.235Z,95.00
2019-05-02T04:20:09.418Z,95.20
2019-05-02T04:22:13.936Z,95.10
2019-05-02T04:24:19.855Z,95.40
2019-05-02T04:26:25.587Z,95.50
2019-05-02T04:28:32.050Z,95.70
2019-05-02T04:30:37.836Z,95.80
2019-05-02T04:32:49.282Z,95.90
2019-05-02T04:34:55.335Z,96.10
2019-05-02T04:37:01.201Z,96.10
2019-05-02T04:39:14.986Z,96.20
2019-05-02T04:41:25.191Z,96.20
2019-05-02T04:43:20.982Z,96.40
2019-05-02T04:45:44.481Z,96.50
2019-05-02T04:47:33.739Z,96.30
2019-05-02T04:49:39.488Z,96.20
2019-05-02T04:51:54.458Z,96.20
2019-05-02T04:53:52.273Z,96.20
2019-05-02T04:56:04.490Z,96.30
2019-05-02T04:58:08.144Z,96.20
2019-05-02T05:00:13.074Z,96.20
2019-05-02T05:02:23.034Z,96.20
2019-05-02T05:04:27.637Z,96.10
2019-05-02T05:06:33.153Z,95.90
2019-05-02T05:08:41.590Z,95.80
2019-05-02T05:10:47.886Z,95.70
2019-05-02T05:12:53.224Z,95.40
2019-05-02T05:15:00.451Z,95.40
2019-05-02T05:17:07.999Z,95.20
2019-05-02T05:19:13.348Z,94.80
2019-05-02T05:21:18.870Z,94.40
2019-05-02T05:23:28.527Z,94.30
2019-05-02T05:25:37.722Z,94.40
2019-05-02T05:27:42.936Z,94.00
2019-05-02T05:29:48.722Z,94.00
2019-05-02T05:31:55.160Z,93.60
2019-05-02T05:34:01.453Z,93.30
2019-05-02T05:36:08.178Z,93.40
2019-05-02T05:38:13.873Z,93.70
2019-05-02T05:40:22.490Z,93.20
2019-05-02T05:42:30.189Z,92.70
2019-05-02T05:44:33.896Z,92.90
2019-05-02T05:46:42.544Z,92.70
2019-05-02T05:48:47.672Z,92.40
2019-05-02T05:50:53.380Z,92.80
2019-05-02T05:52:59.491Z,93.20
2019-05-02T05:55:07.873Z,92.60
2019-05-02T05:57:17.456Z,92.10
2019-05-02T05:59:22.325Z,91.90
2019-05-02T06:01:34.414Z,91.70
2019-05-02T06:03:41.870Z,91.80
2019-05-02T06:05:42.322Z,90.70
2019-05-02T06:07:47.899Z,90.70
2019-05-02T06:09:53.505Z,90.90
2019-05-02T06:11:59.084Z,90.00
2019-05-02T06:14:05.822Z,87.00
2019-05-02T06:16:14.968Z,83.20
2019-05-02T06:18:18.496Z,78.10
2019-05-02T06:20:25.770Z,77.80
2019-05-02T06:22:32.263Z,78.40
2019-05-02T06:24:37.845Z,77.00
2019-05-02T06:26:44.799Z,74.10
2019-05-02T06:28:50.602Z,71.80
2019-05-02T06:30:56.283Z,71.10
2019-05-02T06:33:01.810Z,72.50
2019-05-02T06:35:08.677Z,73.20
2019-05-02T06:37:15.497Z,71.60
2019-05-02T06:39:20.992Z,71.00
2019-05-02T06:41:26.551Z,71.30
2019-05-02T06:43:32.143Z,70.50
2019-05-02T06:45:39.560Z,69.70
2019-05-02T06:47:46.111Z,69.80
2019-05-02T06:49:56.063Z,68.50
2019-05-02T06:51:58.852Z,69.20
2019-05-02T06:54:04.625Z,73.20
2019-05-02T06:56:12.684Z,69.70
2019-05-02T06:58:17.952Z,70.20
2019-05-02T07:00:35.794Z,67.80
2019-05-02T07:02:33.572Z,67.30
2019-05-02T07:04:38.376Z,66.50
2019-05-02T07:06:57.209Z,68.80
2019-05-02T07:08:51.158Z,70.90
2019-05-02T07:11:01.527Z,68.60
2019-05-02T07:13:10.819Z,68.10
2019-05-02T07:15:33.508Z,68.10
2019-05-02T07:17:38.548Z,69.70
2019-05-02T07:19:45.708Z,68.60
2019-05-02T07:21:53.067Z,69.00
2019-05-02T07:23:58.456Z,68.00
2019-05-02T07:26:04.225Z,67.80
2019-05-02T07:28:10.762Z,66.70
2019-05-02T07:30:18.553Z,65.60
2019-05-02T07:32:25.121Z,69.10
2019-05-02T07:34:31.328Z,66.20
2019-05-02T07:36:38.402Z,64.20
2019-05-02T07:38:44.053Z,65.50
2019-05-02T07:40:53.120Z,62.60
2019-05-02T07:42:56.892Z,60.70
2019-05-02T07:45:04.386Z,60.50
2019-05-02T07:47:09.989Z,59.50
2019-05-02T07:49:15.658Z,62.00
2019-05-02T07:51:22.523Z,63.00
2019-05-02T07:53:28.232Z,58.60
2019-05-02T07:55:35.297Z,58.30
2019-05-02T07:57:41.078Z,59.00
2019-05-02T07:59:49.556Z,61.40
2019-05-02T08:01:53.781Z,56.70
2019-05-02T08:04:04.268Z,57.80
2019-05-02T08:06:06.643Z,58.70
2019-05-02T08:08:12.170Z,61.40
2019-05-02T08:10:22.145Z,57.30
2019-05-02T08:12:25.961Z,56.90
2019-05-02T08:14:34.481Z,59.10
2019-05-02T08:16:38.723Z,58.80
2019-05-02T08:18:44.596Z,66.40
2019-05-02T08:20:51.006Z,65.60
2019-05-02T08:22:57.377Z,66.80
2019-05-02T08:25:03.672Z,69.90
2019-05-02T08:27:10.910Z,73.20
2019-05-02T08:29:16.540Z,73.30
2019-05-02T08:31:22.084Z,70.40
2019-05-02T08:33:32.731Z,72.40
2019-05-02T08:35:34.935Z,72.70
2019-05-02T08:37:41.468Z,72.20
2019-05-02T08:39:47.722Z,68.10
2019-05-02T08:41:56.325Z,70.60
2019-05-02T08:44:01.833Z,70.90
2019-05-02T08:46:09.464Z,68.70
2019-05-02T08:48:14.812Z,67.00
2019-05-02T08:50:20.510Z,69.50
2019-05-02T08:52:26.052Z,69.80
2019-05-02T08:54:32.842Z,69.60
2019-05-02T08:56:38.736Z,72.30
2019-05-02T08:58:44.877Z,71.60
2019-05-02T09:00:50.714Z,72.60
2019-05-02T09:02:57.056Z,72.10
2019-05-02T09:05:04.861Z,72.80
2019-05-02T09:07:11.664Z,72.50
2019-05-02T09:09:17.157Z,70.90
2019-05-02T09:11:22.686Z,70.50
2019-05-02T09:13:29.461Z,74.70
2019-05-02T09:15:35.486Z,73.90
2019-05-02T09:17:46.482Z,64.90
2019-05-02T09:20:00.264Z,67.70
2019-05-02T09:21:56.834Z,64.70
2019-05-02T09:24:02.619Z,66.10
2019-05-02T09:26:08.222Z,63.70
2019-05-02T09:28:17.075Z,65.40
2019-05-02T09:30:22.736Z,66.70
2019-05-02T09:32:28.608Z,66.30
2019-05-02T09:34:34.218Z,64.40
2019-05-02T09:36:41.566Z,62.50
2019-05-02T09:38:48.783Z,62.70
2019-05-02T09:40:56.190Z,57.50
2019-05-02T09:43:04.709Z,57.20
2019-05-02T09:45:12.380Z,59.40
2019-05-02T09:47:27.364Z,56.90
2019-05-02T09:49:32.458Z,59.20
2019-05-02T09:51:37.923Z,60.30
2019-05-02T09:53:43.465Z,57.60
2019-05-02T09:55:52.052Z,59.30
2019-05-02T09:57:57.217Z,55.40
2019-05-02T10:00:03.085Z,55.60
2019-05-02T10:02:09.162Z,57.70
2019-05-02T10:04:14.781Z,53.50
2019-05-02T10:06:20.520Z,57.80
2019-05-02T10:08:26.108Z,56.50
2019-05-02T10:10:37.129Z,56.50
2019-05-02T10:12:42.592Z,56.00
2019-05-02T10:14:47.908Z,56.90
2019-05-02T10:16:57.628Z,58.40
2019-05-02T10:19:09.248Z,59.90
2019-05-02T10:21:12.796Z,57.80
2019-05-02T10:23:19.425Z,57.00
2019-05-02T10:25:23.233Z,55.90
2019-05-02T10:27:28.798Z,52.20
2019-05-02T10:29:34.336Z,53.50
2019-05-02T10:31:41.964Z,51.90
2019-05-02T10:33:47.105Z,55.60
2019-05-02T10:35:52.875Z,54.40
2019-05-02T10:37:58.469Z,58.30
2019-05-02T10:40:07.823Z,57.90
2019-05-02T10:42:13.123Z,51.90
2019-05-02T10:44:18.637Z,51.40
2019-05-02T10:46:27.750Z,51.00
2019-05-02T10:48:35.679Z,56.10
2019-05-02T10:50:45.565Z,53.60
2019-05-02T10:52:52.676Z,53.50
2019-05-02T10:54:58.324Z,53.70
2019-05-02T10:57:04.127Z,53.90
2019-05-02T10:59:11.638Z,53.30
2019-05-02T11:01:18.307Z,54.20
2019-05-02T11:03:32.001Z,51.50
2019-05-02T11:05:39.249Z,49.80
2019-05-02T11:07:44.849Z,49.70
2019-05-02T11:09:52.543Z,49.70
2019-05-02T11:11:58.788Z,54.00
2019-05-02T11:14:12.076Z,54.40
2019-05-02T11:16:19.298Z,48.80
2019-05-02T11:18:41.186Z,50.80
2019-05-02T11:20:38.223Z,53.20
2019-05-02T11:22:43.746Z,51.70
2019-05-02T11:24:49.305Z,52.30
2019-05-02T11:26:54.846Z,52.70
2019-05-02T11:29:00.382Z,51.80
2019-05-02T11:31:07.561Z,52.30
2019-05-02T11:33:13.499Z,53.70
2019-05-02T11:35:19.314Z,52.80
2019-05-02T11:37:24.915Z,48.30
2019-05-02T11:39:37.446Z,46.80
2019-05-02T11:41:37.808Z,48.50
2019-05-02T11:43:44.977Z,48.60
2019-05-02T11:45:55.881Z,49.10
2019-05-02T11:48:01.779Z,50.50
2019-05-02T11:50:05.866Z,48.20
2019-05-02T11:52:11.879Z,47.40
2019-05-02T11:54:17.474Z,47.90
2019-05-02T11:56:23.000Z,45.50
2019-05-02T11:58:28.541Z,47.00
2019-05-02T12:00:34.086Z,47.10
2019-05-02T12:02:41.759Z,48.50
2019-05-02T12:04:51.425Z,46.00
2019-05-02T12:07:01.050Z,48.80
2019-05-02T12:09:02.119Z,48.70
2019-05-02T12:11:16.434Z,52.00
2019-05-02T12:13:17.845Z,48.40
2019-05-02T12:15:23.638Z,48.60
2019-05-02T12:17:29.157Z,50.00
2019-05-02T12:19:34.709Z,52.50
2019-05-02T12:21:41.905Z,47.90
2019-05-02T12:23:47.485Z,47.60
2019-05-02T12:25:53.159Z,47.80
2019-05-02T12:27:58.702Z,44.30
2019-05-02T12:30:05.738Z,44.00
2019-05-02T12:32:12.063Z,43.10
2019-05-02T12:34:17.802Z,46.00
2019-05-02T12:36:23.416Z,44.80
2019-05-02T12:38:29.060Z,46.30
2019-05-02T12:40:34.587Z,45.00
2019-05-02T12:42:41.866Z,45.90
2019-05-02T12:44:48.591Z,49.10
2019-05-02T12:46:54.192Z,47.10
2019-05-02T12:48:59.956Z,48.10
2019-05-02T12:51:05.601Z,50.40
2019-05-02T12:53:12.600Z,49.50
2019-05-02T12:55:18.324Z,48.00
2019-05-02T12:57:23.869Z,49.30
2019-05-02T12:59:29.380Z,49.60
2019-05-02T13:01:35.089Z,48.20
2019-05-02T13:03:43.634Z,47.20
2019-05-02T13:05:49.317Z,48.80
2019-05-02T13:07:55.944Z,46.80
2019-05-02T13:10:02.469Z,47.20
2019-05-02T13:12:10.176Z,49.70
2019-05-02T13:14:19.733Z,50.10
2019-05-02T13:16:24.465Z,51.50
2019-05-02T13:18:36.260Z,51.00
2019-05-02T13:20:38.432Z,51.10
2019-05-02T13:22:48.504Z,51.60
2019-05-02T13:24:56.402Z,52.40
2019-05-02T13:27:04.424Z,52.60
2019-05-02T13:29:09.197Z,51.80
2019-05-02T13:31:19.320Z,51.00
2019-05-02T13:33:35.945Z,50.40
2019-05-02T13:35:47.109Z,53.40
2019-05-02T13:37:54.495Z,54.60
2019-05-02T13:40:04.745Z,55.00
2019-05-02T13:42:12.420Z,51.30
2019-05-02T13:44:22.227Z,51.00
2019-05-02T13:46:27.935Z,51.20
2019-05-02T13:48:33.585Z,51.30
2019-05-02T13:50:39.204Z,52.70
2019-05-02T13:52:52.003Z,49.60
2019-05-02T13:54:52.310Z,51.80
2019-05-02T13:56:58.028Z,49.70
2019-05-02T13:59:03.688Z,51.50
2019-05-02T14:01:09.363Z,50.40
2019-05-02T14:03:15.328Z,52.30
2019-05-02T14:05:22.244Z,49.70
2019-05-02T14:07:27.903Z,50.80
2019-05-02T14:09:53.057Z,51.10
2019-05-02T14:11:59.148Z,50.10
2019-05-02T14:14:04.802Z,50.40
2019-05-02T14:16:12.203Z,51.10
2019-05-02T14:18:21.933Z,51.90
2019-05-02T14:20:25.117Z,52.20
2019-05-02T14:22:32.421Z,52.30
2019-05-02T14:24:37.876Z,52.50
2019-05-02T14:26:43.515Z,52.40
2019-05-02T14:28:49.158Z,52.00
2019-05-02T14:30:54.698Z,51.80
2019-05-02T14:33:02.361Z,53.30
2019-05-02T14:35:28.475Z,51.70
2019-05-02T14:37:34.058Z,51.80
2019-05-02T14:39:41.522Z,53.00
2019-05-02T14:41:46.834Z,51.80
2019-05-02T14:43:54.029Z,52.70
2019-05-02T14:45:59.772Z,55.00
2019-05-02T14:48:18.499Z,53.60
2019-05-02T14:50:23.532Z,51.10
2019-05-02T14:52:22.046Z,52.20
2019-05-02T14:54:27.689Z,49.50
2019-05-02T14:56:41.956Z,50.50
2019-05-02T14:58:44.589Z,53.10
2019-05-02T15:00:52.875Z,51.90
2019-05-02T15:02:58.416Z,51.50
2019-05-02T15:05:06.247Z,52.50
2019-05-02T15:07:12.917Z,51.60
2019-05-02T15:09:24.840Z,53.40
2019-05-02T15:11:31.197Z,55.50
2019-05-02T15:13:40.109Z,53.70
2019-05-02T15:15:42.947Z,53.10
2019-05-02T15:17:47.686Z,52.00
2019-05-02T15:19:53.377Z,52.50
2019-05-02T15:21:58.977Z,54.80
2019-05-02T15:24:04.643Z,56.10
2019-05-02T15:26:12.237Z,52.80
2019-05-02T15:28:22.546Z,53.90
2019-05-02T15:30:27.618Z,53.80
2019-05-02T15:32:46.772Z,53.10
2019-05-02T15:35:03.168Z,53.40
2019-05-02T15:37:08.689Z,53.80
2019-05-02T15:41:21.913Z,52.80
2019-05-02T15:43:27.556Z,52.00
2019-05-02T15:45:36.859Z,52.60
2019-05-02T15:47:41.672Z,52.00
2019-05-02T15:49:50.125Z,52.50
2019-05-02T15:51:55.100Z,52.10
2019-05-02T15:54:08.100Z,53.20
2019-05-02T15:56:18.640Z,53.30
2019-05-02T15:58:22.437Z,51.70
2019-05-02T16:00:25.941Z,55.20
2019-05-02T16:02:32.929Z,53.40
2019-05-02T16:04:41.769Z,54.70
2019-05-02T16:06:47.409Z,52.80
2019-05-02T16:08:53.005Z,52.50
2019-05-02T16:10:58.656Z,52.80
2019-05-02T16:13:08.771Z,53.50
2019-05-02T16:15:18.259Z,53.20
2019-05-02T16:17:25.338Z,53.80
2019-05-02T16:19:32.776Z,53.80
2019-05-02T16:21:54.639Z,53.20
2019-05-02T16:24:18.033Z,52.50
2019-05-02T16:26:23.605Z,54.40
2019-05-02T16:28:29.145Z,54.30
2019-05-02T16:30:37.020Z,54.70
2019-05-02T16:32:44.306Z,55.80
2019-05-02T16:34:54.994Z,55.40
2019-05-02T16:37:16.602Z,55.30
2019-05-02T16:39:19.172Z,55.20
2019-05-02T16:41:24.785Z,56.30
2019-05-02T16:43:32.768Z,55.20
2019-05-02T16:45:38.247Z,55.20
2019-05-02T16:47:43.877Z,55.50
2019-05-02T16:49:53.265Z,55.70
2019-05-02T16:51:57.330Z,55.80
2019-05-02T16:54:05.148Z,56.90
2019-05-02T16:56:11.549Z,56.60
2019-05-02T16:58:18.360Z,58.20
2019-05-02T17:00:25.716Z,56.70
2019-05-02T17:02:32.435Z,56.10
2019-05-02T17:04:38.123Z,56.90
2019-05-02T17:06:43.839Z,56.70
2019-05-02T17:08:59.550Z,60.00
2019-05-02T17:11:06.801Z,59.60
2019-05-02T17:13:12.657Z,59.40
2019-05-02T17:15:35.272Z,60.10
2019-05-02T17:17:42.349Z,59.60
2019-05-02T17:19:47.981Z,61.00
2019-05-02T17:21:56.467Z,61.50
2019-05-02T17:24:02.492Z,62.00
2019-05-02T17:26:08.113Z,62.20
2019-05-02T17:28:13.741Z,62.50
2019-05-02T17:30:19.778Z,62.20
2019-05-02T17:32:28.815Z,65.20
2019-05-02T17:34:34.958Z,64.10
2019-05-02T17:36:39.816Z,65.90
2019-05-02T17:38:45.360Z,62.30
2019-05-02T17:40:54.125Z,63.60
2019-05-02T17:43:03.062Z,63.40
2019-05-02T17:45:08.460Z,65.30
2019-05-02T17:47:14.339Z,69.20
2019-05-02T17:49:23.922Z,67.80
2019-05-02T17:51:33.917Z,67.00
2019-05-02T17:53:44.523Z,66.90
2019-05-02T17:55:47.379Z,68.00
2019-05-02T17:57:52.944Z,66.60
2019-05-02T17:59:58.482Z,68.30
2019-05-02T18:02:06.657Z,68.50
2019-05-02T18:04:12.568Z,67.20
2019-05-02T18:06:30.113Z,67.60
2019-05-02T18:08:27.109Z,67.70
2019-05-02T18:10:32.686Z,68.00
2019-05-02T18:12:38.221Z,68.00
2019-05-02T18:14:43.752Z,68.60
2019-05-02T18:16:51.913Z,69.40
2019-05-02T18:18:56.409Z,68.70
2019-05-02T18:21:02.152Z,71.60
2019-05-02T18:23:08.792Z,71.50
2019-05-02T18:25:16.231Z,72.90
2019-05-02T18:27:22.245Z,75.10
2019-05-02T18:29:27.932Z,74.70
2019-05-02T18:31:34.746Z,75.80
2019-05-02T18:33:42.558Z,76.50
2019-05-02T18:35:48.264Z,77.40
2019-05-02T18:37:53.950Z,76.60
2019-05-02T18:39:59.616Z,77.20
2019-05-02T18:42:05.222Z,77.20
2019-05-02T18:44:11.824Z,77.90
2019-05-02T18:46:19.863Z,76.60
2019-05-02T18:48:25.135Z,77.30
2019-05-02T18:50:41.315Z,77.50
2019-05-02T18:52:48.040Z,76.60
2019-05-02T18:54:51.742Z,77.30
2019-05-02T18:56:57.432Z,77.90
2019-05-02T18:59:04.189Z,77.70
2019-05-02T19:01:14.139Z,78.00
2019-05-02T19:03:17.410Z,78.10
2019-05-02T19:05:23.127Z,77.40
2019-05-02T19:07:33.191Z,77.60
2019-05-02T19:09:48.428Z,77.20
2019-05-02T19:11:44.091Z,77.70
2019-05-02T19:13:52.494Z,77.70
2019-05-02T19:15:57.878Z,76.90
2019-05-02T19:18:03.523Z,77.60
2019-05-02T19:20:24.200Z,77.70
2019-05-02T19:22:29.735Z,79.50
2019-05-02T19:24:36.582Z,78.20
2019-05-02T19:26:49.372Z,77.70
2019-05-02T19:28:57.073Z,78.70
2019-05-02T19:31:06.735Z,78.80
2019-05-02T19:33:12.115Z,79.30
2019-05-02T19:35:17.870Z,80.70
2019-05-02T19:37:23.413Z,78.90
2019-05-02T19:39:32.297Z,79.40
2019-05-02T19:41:39.012Z,79.00
2019-05-02T19:43:49.381Z,79.40
2019-05-02T19:45:54.113Z,80.10
2019-05-02T19:47:59.928Z,79.10
2019-05-02T19:50:08.540Z,79.60
2019-05-02T19:52:14.130Z,80.00
2019-05-02T19:54:21.726Z,79.60
2019-05-02T19:56:26.922Z,80.20
2019-05-02T19:58:36.754Z,79.90
2019-05-02T20:00:46.087Z,78.70
2019-05-02T20:02:49.778Z,79.90
2019-05-02T20:04:55.297Z,79.30
2019-05-02T20:07:00.820Z,80.60
2019-05-02T20:09:08.526Z,80.20
2019-05-02T20:11:16.075Z,80.20
2019-05-02T20:13:28.104Z,81.30
2019-05-02T20:15:32.683Z,81.30
2019-05-02T20:17:38.004Z,80.50
2019-05-02T20:19:45.231Z,79.70
2019-05-02T20:21:57.183Z,81.10
2019-05-02T20:24:04.309Z,80.20
2019-05-02T20:26:15.423Z,80.50
2019-05-02T20:28:18.521Z,78.60
2019-05-02T20:30:24.049Z,78.20
2019-05-02T20:32:29.650Z,79.20
2019-05-02T20:34:35.190Z,79.60
2019-05-02T20:36:42.462Z,80.70
2019-05-02T20:38:48.175Z,81.70
2019-05-02T20:40:53.768Z,82.60
2019-05-02T20:42:59.420Z,84.00
2019-05-02T20:45:07.148Z,85.50
2019-05-02T20:47:15.391Z,85.20
2019-05-02T20:49:20.913Z,84.80
2019-05-02T20:51:26.440Z,85.20
2019-05-02T20:53:34.200Z,83.70
2019-05-02T20:55:39.210Z,83.80
2019-05-02T20:57:44.764Z,85.20
2019-05-02T20:59:52.329Z,86.20
2019-05-02T21:01:57.746Z,84.00
2019-05-02T21:04:03.280Z,84.50
2019-05-02T21:06:13.057Z,84.50
2019-05-02T21:08:23.267Z,79.70
2019-05-02T21:10:32.209Z,80.00
2019-05-02T21:12:37.867Z,79.80
2019-05-02T21:14:43.389Z,81.90
2019-05-02T21:16:48.985Z,83.40
2019-05-02T21:18:54.537Z,81.80
2019-05-02T21:21:00.203Z,83.40
2019-05-02T21:23:05.941Z,82.30
2019-05-02T21:25:13.019Z,81.60
2019-05-02T21:27:18.686Z,82.70
2019-05-02T21:29:24.195Z,82.30
2019-05-02T21:31:31.786Z,80.60
2019-05-02T21:33:39.227Z,80.00
2019-05-02T21:35:44.842Z,81.20
2019-05-02T21:37:52.309Z,79.50
2019-05-02T21:39:57.681Z,79.80
2019-05-02T21:42:03.223Z,79.60
2019-05-02T21:44:09.125Z,79.40
2019-05-02T21:46:14.710Z,79.70
2019-05-02T21:48:21.962Z,78.90
2019-05-02T21:50:36.120Z,79.00
2019-05-02T21:52:43.281Z,78.60
2019-05-02T21:54:59.430Z,77.70
2019-05-02T21:57:06.740Z,78.80
2019-05-02T21:59:13.035Z,78.70
2019-05-02T22:01:19.181Z,78.00
2019-05-02T22:03:25.021Z,79.00
2019-05-02T22:05:31.691Z,78.10
2019-05-02T22:07:37.341Z,78.10
2019-05-02T22:09:42.923Z,78.40
2019-05-02T22:11:48.585Z,80.90
2019-05-02T22:13:54.128Z,79.00
2019-05-02T22:15:59.779Z,80.40
2019-05-02T22:18:05.448Z,78.60
2019-05-02T22:20:12.391Z,78.70
2019-05-02T22:22:18.899Z,79.30
2019-05-02T22:24:24.421Z,79.50
2019-05-02T22:26:29.936Z,79.40
2019-05-02T22:28:35.465Z,79.30
2019-05-02T22:30:42.862Z,80.20
2019-05-02T22:32:48.164Z,81.30
2019-05-02T22:34:55.898Z,81.90
2019-05-02T22:37:02.290Z,81.30
2019-05-02T22:39:12.628Z,81.50
2019-05-02T22:41:18.138Z,82.00
2019-05-02T22:43:23.660Z,82.50
2019-05-02T22:45:29.258Z,82.30
2019-05-02T22:47:34.777Z,83.10
2019-05-02T22:49:42.282Z,82.00
2019-05-02T22:51:47.473Z,82.00
2019-05-02T22:53:52.992Z,82.20
2019-05-02T22:55:58.511Z,81.60
2019-05-02T22:58:04.136Z,82.20
2019-05-02T23:00:09.795Z,81.70
2019-05-02T23:02:16.988Z,81.60
2019-05-02T23:04:23.600Z,81.80
2019-05-02T23:06:29.228Z,82.30
2019-05-02T23:08:34.756Z,81.90
2019-05-02T23:10:41.654Z,82.50
2019-05-02T23:12:47.268Z,82.50
2019-05-02T23:14:52.856Z,82.30
2019-05-02T23:16:58.385Z,82.50
2019-05-02T23:19:04.084Z,83.00
2019-05-02T23:21:09.609Z,82.60
2019-05-02T23:23:15.156Z,82.90
2019-05-02T23:25:39.128Z,83.10
2019-05-02T23:27:46.373Z,83.20
2019-05-02T23:29:52.081Z,84.10
2019-05-02T23:31:57.708Z,84.60
2019-05-02T23:34:03.320Z,84.20
2019-05-02T23:36:08.873Z,85.30
2019-05-02T23:38:14.376Z,85.70
2019-05-02T23:40:20.048Z,86.40
2019-05-02T23:42:25.587Z,86.60
2019-05-02T23:44:31.173Z,87.10
2019-05-02T23:46:36.830Z,87.40
2019-05-02T23:48:42.408Z,87.90
2019-05-02T23:50:47.936Z,86.70
2019-05-02T23:52:53.510Z,86.80
2019-05-02T23:54:59.133Z,86.30
2019-05-02T23:57:04.796Z,87.00
2019-05-02T23:59:11.850Z,87.70
